Time;durP1;ratioP1;P1;durP2;ratioP2;P2;SDS_P1;SDS_P2;PMS_P1;PMS_P2;Temp;Humidity;BMP_temperature;BMP_pressure;BME280_temperature;BME280_humidity;BME280_pressure;Samples;Min_cycle;Max_cycle;Signal;HPM_P1;HPM_P2
2023/01/23 00:01:35;;;;;;;3.87;3.47;;;21.70;53.40;;;;;;4926590;29;20448;-62
2023/01/23 00:04:04;;;;;;;2.90;2.70;;;21.70;53.40;;;;;;4926253;29;20463;-61
2023/01/23 00:06:34;;;;;;;3.27;3.07;;;21.60;53.40;;;;;;4921072;29;20483;-62
2023/01/23 00:09:03;;;;;;;3.13;2.93;;;21.60;53.40;;;;;;4923502;29;20449;-61
2023/01/23 00:11:32;;;;;;;3.00;2.80;;;21.60;53.40;;;;;;4930130;29;20511;-61
2023/01/23 00:14:01;;;;;;;3.60;3.40;;;21.60;53.40;;;;;;4933009;29;20526;-62
2023/01/23 00:16:31;;;;;;;3.23;3.03;;;21.60;53.40;;;;;;4926418;29;20476;-62
2023/01/23 00:18:59;;;;;;;3.00;2.80;;;21.60;53.40;;;;;;4930025;29;20558;-62
2023/01/23 00:21:29;;;;;;;2.60;2.50;;;21.60;53.40;;;;;;4931809;29;20453;-61
2023/01/23 00:24:00;;;;;;;3.10;2.90;;;21.60;53.40;;;;;;4932338;29;20450;-61
2023/01/23 00:26:33;;;;;;;3.00;2.80;;;21.60;53.30;;;;;;4934270;29;20932;-63
2023/01/23 00:29:02;;;;;;;3.13;2.87;;;21.60;53.30;;;;;;4930062;29;20455;-61
2023/01/23 00:31:34;;;;;;;3.10;2.80;;;21.60;53.30;;;;;;4931612;29;20543;-61
2023/01/23 00:34:04;;;;;;;3.30;3.10;;;21.60;53.30;;;;;;4927322;29;20463;-61
2023/01/23 00:36:36;;;;;;;3.30;3.10;;;21.60;53.20;;;;;;4932353;29;20511;-61
2023/01/23 00:39:07;;;;;;;3.13;2.93;;;21.60;53.20;;;;;;4927649;29;20979;-61
2023/01/23 00:41:37;;;;;;;3.00;2.80;;;21.60;53.20;;;;;;4928787;29;20495;-61
2023/01/23 00:44:05;;;;;;;2.80;2.60;;;21.60;53.20;;;;;;4930095;29;20563;-60
2023/01/23 00:46:34;;;;;;;2.70;2.57;;;21.60;53.20;;;;;;4931084;29;20456;-61
2023/01/23 00:49:03;;;;;;;3.30;3.10;;;21.60;53.20;;;;;;4931420;29;20455;-61
2023/01/23 00:51:31;;;;;;;3.37;2.97;;;21.60;53.20;;;;;;4925581;29;20649;-61
2023/01/23 00:54:00;;;;;;;2.80;2.70;;;21.60;53.20;;;;;;4932350;29;20471;-61
2023/01/23 00:56:29;;;;;;;2.67;2.47;;;21.60;53.10;;;;;;4927266;29;20482;-61
2023/01/23 00:58:58;;;;;;;3.10;2.90;;;21.60;53.10;;;;;;4930202;29;20644;-61
2023/01/23 01:01:27;;;;;;;2.70;2.60;;;21.60;53.10;;;;;;4929765;29;20587;-62
2023/01/23 01:03:56;;;;;;;3.27;2.97;;;21.60;53.10;;;;;;4930067;29;20501;-61
2023/01/23 01:06:25;;;;;;;2.97;2.77;;;21.60;53.10;;;;;;4928254;29;20550;-61
2023/01/23 01:08:53;;;;;;;2.77;2.57;;;21.60;53.10;;;;;;4932556;29;20808;-62
2023/01/23 01:11:23;;;;;;;3.47;3.17;;;21.60;53.10;;;;;;4928703;29;20932;-62
2023/01/23 01:13:51;;;;;;;3.10;2.90;;;21.60;53.00;;;;;;4929590;29;20460;-64
2023/01/23 01:16:23;;;;;;;3.10;2.80;;;21.60;53.00;;;;;;4931774;29;20574;-62
2023/01/23 01:18:51;;;;;;;2.93;2.50;;;21.60;53.00;;;;;;4932484;29;20559;-61
2023/01/23 01:21:20;;;;;;;3.17;2.47;;;21.60;53.00;;;;;;4927524;29;20470;-62
2023/01/23 01:23:48;;;;;;;3.00;2.80;;;21.60;53.00;;;;;;4930316;29;20515;-61
2023/01/23 01:26:17;;;;;;;2.63;2.50;;;21.60;53.00;;;;;;4934196;29;20484;-61
2023/01/23 01:28:45;;;;;;;2.80;2.60;;;21.60;53.00;;;;;;4929281;29;20451;-61
2023/01/23 01:31:15;;;;;;;3.10;2.80;;;21.70;52.90;;;;;;4934148;29;20554;-60
2023/01/23 01:33:45;;;;;;;2.63;2.53;;;21.70;52.90;;;;;;4932395;29;20945;-61
2023/01/23 01:36:16;;;;;;;3.13;2.93;;;21.70;52.90;;;;;;4924159;29;20480;-60
2023/01/23 01:38:47;;;;;;;2.97;2.77;;;21.70;52.90;;;;;;4928532;29;20451;-61
2023/01/23 01:41:16;;;;;;;2.73;2.63;;;21.60;52.90;;;;;;4931764;29;20480;-62
2023/01/23 01:43:45;;;;;;;4.13;2.40;;;21.70;52.80;;;;;;4922846;29;20487;-61
2023/01/23 01:46:20;;;;;;;2.70;2.50;;;21.70;52.90;;;;;;4925450;29;20487;-60
2023/01/23 01:48:56;;;;;;;3.43;2.63;;;21.70;52.80;;;;;;4930525;29;20491;-61
2023/01/23 01:51:29;;;;;;;3.47;3.20;;;21.70;52.70;;;;;;4928923;29;20474;-61
2023/01/23 01:54:05;;;;;;;3.50;3.30;;;21.70;52.80;;;;;;4931930;29;20473;-61
2023/01/23 01:56:39;;;;;;;2.80;2.60;;;21.70;52.80;;;;;;4929222;29;20895;-60
2023/01/23 01:59:09;;;;;;;2.60;2.40;;;21.70;52.70;;;;;;4931124;29;20466;-61
2023/01/23 02:01:39;;;;;;;2.93;2.73;;;21.70;52.70;;;;;;4932816;29;20447;-60
2023/01/23 02:04:09;;;;;;;2.80;2.60;;;21.70;52.70;;;;;;4928575;29;20827;-62
2023/01/23 02:06:38;;;;;;;3.30;3.10;;;21.70;52.70;;;;;;4925772;29;20825;-61
2023/01/23 02:09:12;;;;;;;2.60;2.40;;;21.70;52.80;;;;;;4921924;29;20464;-61
2023/01/23 02:11:42;;;;;;;2.97;2.77;;;21.70;52.70;;;;;;4925177;29;20511;-61
2023/01/23 02:14:13;;;;;;;3.20;3.00;;;21.70;52.60;;;;;;4926830;29;20590;-61
2023/01/23 02:16:49;;;;;;;3.33;2.97;;;21.70;52.70;;;;;;4931377;29;20772;-61
2023/01/23 02:19:31;;;;;;;3.07;2.87;;;21.70;52.70;;;;;;4932807;29;20837;-61
2023/01/23 02:22:08;;;;;;;3.37;3.10;;;21.70;52.70;;;;;;4933278;29;20455;-62
2023/01/23 02:24:43;;;;;;;3.07;2.83;;;21.70;52.60;;;;;;4932574;29;20487;-61
2023/01/23 02:27:13;;;;;;;2.40;2.20;;;21.70;52.70;;;;;;4929666;29;20456;-61
2023/01/23 02:29:43;;;;;;;2.57;2.47;;;21.60;52.70;;;;;;4929773;29;20933;-61
2023/01/23 02:32:12;;;;;;;2.60;2.50;;;21.60;52.70;;;;;;4926593;29;20464;-61
2023/01/23 02:34:41;;;;;;;2.60;2.50;;;21.70;52.70;;;;;;4927778;29;20460;-61
2023/01/23 02:37:10;;;;;;;2.47;2.37;;;21.70;52.60;;;;;;4930514;29;20577;-62
2023/01/23 02:39:39;;;;;;;2.73;2.53;;;21.70;52.50;;;;;;4927100;29;20940;-61
2023/01/23 02:42:10;;;;;;;2.10;2.00;;;21.70;52.50;;;;;;4928461;29;20519;-61
2023/01/23 02:44:48;;;;;;;3.00;2.80;;;21.70;52.60;;;;;;4931675;29;20463;-61
2023/01/23 02:47:19;;;;;;;2.80;2.60;;;21.70;52.50;;;;;;4930466;29;20858;-61
2023/01/23 02:49:47;;;;;;;2.63;2.53;;;21.60;52.60;;;;;;4929930;29;20601;-61
2023/01/23 02:52:16;;;;;;;3.10;2.90;;;21.70;52.50;;;;;;4930519;29;20931;-61
2023/01/23 02:54:45;;;;;;;3.00;2.80;;;21.70;52.50;;;;;;4931451;29;20483;-61
2023/01/23 02:57:15;;;;;;;2.50;2.30;;;21.70;52.60;;;;;;4923846;29;20485;-61
2023/01/23 03:02:32;;;;;;;2.67;2.47;;;21.70;52.50;;;;;;4929166;29;20468;-64
2023/01/23 03:05:00;;;;;;;2.07;1.97;;;21.70;52.50;;;;;;4928292;29;20474;-62
2023/01/23 03:07:28;;;;;;;2.40;2.30;;;21.70;52.50;;;;;;4927953;29;20469;-68
2023/01/23 03:09:57;;;;;;;3.00;2.80;;;21.70;52.40;;;;;;4931869;29;20518;-61
2023/01/23 03:12:25;;;;;;;2.80;2.60;;;21.70;52.40;;;;;;4925102;29;20478;-63
2023/01/23 03:14:55;;;;;;;3.00;2.80;;;21.70;52.40;;;;;;4922021;29;20559;-62
2023/01/23 03:17:23;;;;;;;2.60;2.40;;;21.70;52.40;;;;;;4933034;29;20473;-61
2023/01/23 03:19:56;;;;;;;2.90;2.70;;;21.70;52.40;;;;;;4928460;29;20459;-62
2023/01/23 03:22:27;;;;;;;2.50;2.40;;;21.70;52.40;;;;;;4932604;29;20820;-61
2023/01/23 03:24:57;;;;;;;3.03;2.73;;;21.70;52.50;;;;;;4933218;29;20495;-61
2023/01/23 03:27:26;;;;;;;2.73;2.53;;;21.70;52.40;;;;;;4934067;29;20543;-61
2023/01/23 03:30:14;;;;;;;2.70;2.50;;;21.70;52.40;;;;;;4932298;29;20463;-61
2023/01/23 03:32:44;;;;;;;2.50;2.40;;;21.70;52.40;;;;;;4933726;29;20466;-61
2023/01/23 03:35:16;;;;;;;2.60;2.40;;;21.70;52.40;;;;;;4929313;29;20529;-61
2023/01/23 03:37:45;;;;;;;2.50;2.30;;;21.70;52.40;;;;;;4932355;29;20487;-61
2023/01/23 03:43:04;;;;;;;1.90;1.70;;;21.70;52.40;;;;;;4934288;29;20463;-62
2023/01/23 03:45:34;;;;;;;2.50;2.40;;;21.70;52.30;;;;;;4932207;29;20818;-61
2023/01/23 03:48:03;;;;;;;2.13;2.03;;;21.70;52.30;;;;;;4927356;29;20465;-61
2023/01/23 03:50:32;;;;;;;2.07;1.97;;;21.70;52.30;;;;;;4942412;29;20476;-62
2023/01/23 03:53:00;;;;;;;2.57;2.47;;;21.70;52.30;;;;;;4932475;29;20473;-62
2023/01/23 03:55:29;;;;;;;2.40;2.30;;;21.70;52.30;;;;;;4941163;29;20548;-61
2023/01/23 03:57:57;;;;;;;3.00;2.80;;;21.70;52.30;;;;;;4925205;29;20563;-61
2023/01/23 04:00:29;;;;;;;2.30;2.20;;;21.70;52.30;;;;;;4930655;29;20817;-61
2023/01/23 04:03:01;;;;;;;2.00;1.90;;;21.70;52.30;;;;;;4931445;29;20476;-61
2023/01/23 04:05:29;;;;;;;3.37;3.17;;;21.70;52.30;;;;;;4930572;29;20451;-61
2023/01/23 04:07:59;;;;;;;2.30;2.10;;;21.70;52.30;;;;;;4930598;29;20796;-61
2023/01/23 04:10:28;;;;;;;2.70;2.50;;;21.70;52.30;;;;;;4926733;29;20858;-62
2023/01/23 04:13:02;;;;;;;2.67;2.47;;;21.70;52.20;;;;;;4928566;29;20484;-61
2023/01/23 04:15:32;;;;;;;2.80;2.60;;;21.70;52.20;;;;;;4920907;29;20500;-61
2023/01/23 04:18:02;;;;;;;2.60;2.40;;;21.70;52.20;;;;;;4932173;29;20492;-62
2023/01/23 04:20:30;;;;;;;2.50;2.30;;;21.70;52.20;;;;;;4929561;29;20464;-62
2023/01/23 04:23:00;;;;;;;2.50;2.20;;;21.70;52.20;;;;;;4930940;29;20515;-61
2023/01/23 04:25:30;;;;;;;2.20;2.10;;;21.70;52.20;;;;;;4934646;29;20506;-61
2023/01/23 04:27:58;;;;;;;4.17;2.00;;;21.70;52.20;;;;;;4933936;29;21344;-62
2023/01/23 04:30:27;;;;;;;2.03;1.93;;;21.70;52.30;;;;;;4933433;29;20474;-61
2023/01/23 04:32:58;;;;;;;2.60;2.40;;;21.70;52.20;;;;;;4934530;29;21381;-62
2023/01/23 04:35:26;;;;;;;2.90;2.47;;;21.70;52.10;;;;;;4935433;29;20512;-61
2023/01/23 04:37:54;;;;;;;2.50;2.30;;;21.70;52.10;;;;;;4935023;29;21591;-61
2023/01/23 04:40:24;;;;;;;2.47;2.37;;;21.70;52.10;;;;;;4933784;29;20491;-62
2023/01/23 04:42:56;;;;;;;2.40;2.23;;;21.70;52.10;;;;;;4931758;29;20502;-61
2023/01/23 04:45:36;;;;;;;2.33;2.23;;;21.70;52.10;;;;;;4931669;29;20459;-62
2023/01/23 04:48:37;;;;;;;2.70;2.60;;;21.70;52.10;;;;;;4914592;29;20460;-61
2023/01/23 04:51:06;;;;;;;2.80;2.60;;;21.70;52.20;;;;;;4923393;29;20527;-61
2023/01/23 04:53:35;;;;;;;2.57;2.47;;;21.70;52.10;;;;;;4934309;29;20559;-62
2023/01/23 04:56:06;;;;;;;2.67;2.57;;;21.70;52.20;;;;;;4935644;29;20453;-62
2023/01/23 04:58:34;;;;;;;2.57;2.37;;;21.60;52.20;;;;;;4934014;29;20520;-61
2023/01/23 05:01:05;;;;;;;2.43;2.23;;;21.70;52.20;;;;;;4932804;29;20566;-62
2023/01/23 05:03:36;;;;;;;2.40;2.30;;;21.70;52.20;;;;;;4930812;29;20460;-62
2023/01/23 05:06:04;;;;;;;2.20;2.10;;;21.70;52.20;;;;;;4934014;29;20476;-62
2023/01/23 05:08:33;;;;;;;2.93;2.53;;;21.70;52.20;;;;;;4947647;29;20778;-61
2023/01/23 05:11:15;;;;;;;2.27;2.17;;;21.70;52.20;;;;;;4934321;29;20463;-61
2023/01/23 05:13:44;;;;;;;2.10;2.00;;;21.70;52.10;;;;;;4932643;29;20952;-62
2023/01/23 05:16:13;;;;;;;2.00;1.90;;;21.60;52.20;;;;;;4941666;29;20476;-63
2023/01/23 05:19:08;;;;;;;2.53;2.33;;;21.60;52.20;;;;;;4932345;29;20483;-64
2023/01/23 05:21:36;;;;;;;2.00;1.90;;;21.60;52.10;;;;;;4933615;29;20456;-62
2023/01/23 05:24:09;;;;;;;2.10;2.00;;;21.60;52.10;;;;;;4932788;29;20540;-62
2023/01/23 05:26:39;;;;;;;2.47;2.27;;;21.60;52.20;;;;;;4932913;29;20458;-61
2023/01/23 05:29:08;;;;;;;1.93;1.83;;;21.60;52.20;;;;;;4933260;29;20970;-62
2023/01/23 05:31:41;;;;;;;2.17;1.90;;;21.60;52.20;;;;;;4929380;29;20574;-61
2023/01/23 05:34:45;;;;;;;2.00;1.90;;;21.60;52.20;;;;;;4931513;29;20990;-61
2023/01/23 05:37:19;;;;;;;2.03;1.93;;;21.60;52.20;;;;;;4926274;29;20795;-61
2023/01/23 05:39:51;;;;;;;2.37;2.27;;;21.60;52.20;;;;;;4931935;29;20481;-62
2023/01/23 05:42:21;;;;;;;2.53;2.37;;;21.60;52.20;;;;;;4929694;29;20495;-61
2023/01/23 05:45:02;;;;;;;2.23;2.13;;;21.60;52.20;;;;;;4929517;29;20908;-62
2023/01/23 05:47:37;;;;;;;2.27;2.17;;;21.60;52.20;;;;;;4923911;29;20472;-63
2023/01/23 05:50:09;;;;;;;2.20;2.10;;;21.60;52.30;;;;;;4920294;29;20497;-62
2023/01/23 05:52:37;;;;;;;3.47;2.33;;;21.60;52.40;;;;;;4928009;29;20498;-61
2023/01/23 05:55:07;;;;;;;2.47;2.27;;;21.60;52.50;;;;;;4937711;29;20519;-63
2023/01/23 05:57:39;;;;;;;2.80;2.60;;;21.70;52.60;;;;;;4939299;29;20508;-62
2023/01/23 06:00:30;;;;;;;2.70;2.50;;;21.70;52.60;;;;;;4919143;29;20475;-62
2023/01/23 06:03:21;;;;;;;2.70;2.20;;;21.70;52.70;;;;;;4925857;29;20455;-62
2023/01/23 06:06:03;;;;;;;2.57;2.40;;;21.70;52.80;;;;;;4926072;29;20560;-62
2023/01/23 06:08:32;;;;;;;2.37;2.17;;;21.70;52.80;;;;;;4919363;29;20491;-62
2023/01/23 06:11:00;;;;;;;2.60;2.40;;;21.70;52.80;;;;;;4937944;29;20556;-62
2023/01/23 06:13:30;;;;;;;2.57;2.37;;;21.60;52.90;;;;;;4919549;29;20471;-62
2023/01/23 06:15:59;;;;;;;2.63;2.43;;;21.60;53.00;;;;;;4925187;29;20521;-62
2023/01/23 06:18:27;;;;;;;2.50;2.20;;;21.60;53.10;;;;;;4924665;29;20488;-63
2023/01/23 06:20:59;;;;;;;2.60;2.40;;;21.60;53.20;;;;;;4921823;29;20455;-62
2023/01/23 06:23:29;;;;;;;2.73;2.53;;;21.60;53.20;;;;;;4935781;29;20469;-64
2023/01/23 06:26:01;;;;;;;3.03;2.70;;;21.60;53.30;;;;;;4922834;29;20970;-62
2023/01/23 06:28:31;;;;;;;5.03;2.70;;;21.60;53.40;;;;;;4931381;29;20459;-62
2023/01/23 06:31:05;;;;;;;4.60;2.27;;;21.60;53.50;;;;;;4926309;29;20821;-62
2023/01/23 06:33:42;;;;;;;2.27;2.13;;;21.60;53.60;;;;;;4919515;29;20468;-61
2023/01/23 06:36:12;;;;;;;2.50;2.30;;;21.60;53.60;;;;;;4912073;29;20460;-61
2023/01/23 06:38:40;;;;;;;2.97;2.70;;;21.60;53.60;;;;;;4932553;29;20514;-61
2023/01/23 06:41:12;;;;;;;2.87;2.33;;;21.60;53.70;;;;;;4929286;29;20495;-61
2023/01/23 06:43:47;;;;;;;2.70;2.43;;;21.60;53.70;;;;;;4927790;29;20472;-62
2023/01/23 06:46:21;;;;;;;4.43;3.13;;;21.60;53.70;;;;;;4925892;29;20511;-62
2023/01/23 06:48:49;;;;;;;3.30;2.47;;;21.60;53.70;;;;;;4928559;29;20915;-63
2023/01/23 06:51:17;;;;;;;3.10;2.80;;;21.60;53.70;;;;;;4927242;29;20566;-62
2023/01/23 06:53:47;;;;;;;4.07;2.90;;;21.60;53.70;;;;;;4928797;29;20630;-62
2023/01/23 06:56:16;;;;;;;3.20;2.77;;;21.60;53.70;;;;;;4932914;29;20454;-62
2023/01/23 06:58:47;;;;;;;4.30;2.53;;;21.60;53.70;;;;;;4933130;29;20544;-62
2023/01/23 07:01:25;;;;;;;3.13;2.93;;;21.60;53.70;;;;;;4935826;29;20485;-62
2023/01/23 07:04:12;;;;;;;4.17;3.03;;;21.60;53.70;;;;;;4934159;29;20987;-68
2023/01/23 07:06:42;;;;;;;3.43;3.13;;;21.60;53.70;;;;;;4931786;29;20476;-61
2023/01/23 07:09:12;;;;;;;3.27;3.07;;;21.60;53.70;;;;;;4931557;29;20515;-61
2023/01/23 07:11:40;;;;;;;4.93;2.83;;;21.60;53.70;;;;;;4933274;29;20455;-62
2023/01/23 07:14:09;;;;;;;2.90;2.70;;;21.60;53.70;;;;;;4935455;29;20615;-62
2023/01/23 07:16:40;;;;;;;3.00;2.80;;;21.60;53.70;;;;;;4932846;29;20467;-62
2023/01/23 07:19:08;;;;;;;3.00;2.70;;;21.60;53.70;;;;;;4930140;29;20530;-62
2023/01/23 07:21:38;;;;;;;2.77;2.57;;;21.70;53.60;;;;;;4935480;29;20459;-63
2023/01/23 07:24:07;;;;;;;3.00;2.80;;;21.70;53.50;;;;;;4932534;29;20510;-62
2023/01/23 07:26:35;;;;;;;3.03;2.73;;;21.70;53.40;;;;;;4933500;29;20451;-62
2023/01/23 07:29:03;;;;;;;3.67;2.80;;;21.70;53.40;;;;;;4930734;29;20494;-61
2023/01/23 07:31:33;;;;;;;3.20;2.90;;;21.70;53.40;;;;;;4930759;29;20493;-61
2023/01/23 07:34:01;;;;;;;3.00;2.80;;;21.70;53.40;;;;;;4933285;29;20455;-62
2023/01/23 07:36:30;;;;;;;2.43;2.30;;;21.60;53.40;;;;;;4936062;29;20880;-61
2023/01/23 07:38:58;;;;;;;2.70;2.50;;;21.60;53.30;;;;;;4935921;29;20451;-63
2023/01/23 07:41:26;;;;;;;3.10;2.80;;;21.60;53.30;;;;;;4934820;29;21795;-62
2023/01/23 07:43:54;;;;;;;2.90;2.60;;;21.60;53.30;;;;;;4936121;29;20862;-61
2023/01/23 07:46:24;;;;;;;3.10;2.73;;;21.60;53.30;;;;;;4934256;29;20887;-63
2023/01/23 07:48:55;;;;;;;4.80;2.70;;;21.60;53.30;;;;;;4920925;29;20482;-63
2023/01/23 07:51:23;;;;;;;4.70;2.90;;;21.60;53.30;;;;;;4923642;29;20472;-63
2023/01/23 07:53:51;;;;;;;2.60;2.40;;;21.60;53.30;;;;;;4916035;29;20461;-62
2023/01/23 07:56:19;;;;;;;2.93;2.73;;;21.60;53.40;;;;;;4935429;29;20455;-63
2023/01/23 07:58:50;;;;;;;2.63;2.50;;;21.50;53.40;;;;;;4931425;29;20471;-63
2023/01/23 08:01:19;;;;;;;3.87;3.53;;;21.60;53.50;;;;;;4935888;29;20653;-64
2023/01/23 08:03:47;;;;;;;3.73;2.90;;;21.60;53.70;;;;;;4935851;29;20951;-63
2023/01/23 08:06:17;;;;;;;2.87;2.67;;;21.70;53.70;;;;;;4919142;29;20453;-63
2023/01/23 08:08:47;;;;;;;2.73;2.57;;;21.80;53.70;;;;;;4928456;29;20468;-63
2023/01/23 08:11:15;;;;;;;3.00;2.80;;;21.90;53.70;;;;;;4935049;29;20909;-63
2023/01/23 08:13:44;;;;;;;2.97;2.77;;;22.00;53.60;;;;;;4936204;29;21240;-63
2023/01/23 08:16:12;;;;;;;3.77;2.50;;;22.10;53.70;;;;;;4934567;29;20448;-66
2023/01/23 08:18:40;;;;;;;3.30;3.00;;;22.10;53.70;;;;;;4933581;29;20449;-62
2023/01/23 08:21:10;;;;;;;2.93;2.30;;;22.20;53.60;;;;;;4934862;29;20642;-63
2023/01/23 08:23:39;;;;;;;2.67;2.37;;;22.20;53.60;;;;;;4934394;29;20983;-63
2023/01/23 08:26:09;;;;;;;4.40;2.70;;;22.30;53.50;;;;;;4929773;29;20488;-63
2023/01/23 08:28:44;;;;;;;2.90;2.70;;;22.30;53.50;;;;;;4934663;29;20445;-63
2023/01/23 08:31:13;;;;;;;2.83;2.63;;;22.40;53.50;;;;;;4932859;29;20499;-63
2023/01/23 08:33:41;;;;;;;2.93;2.73;;;22.50;53.40;;;;;;4922721;29;20528;-63
2023/01/23 08:36:12;;;;;;;2.40;2.20;;;22.50;53.40;;;;;;4934857;29;20456;-63
2023/01/23 08:38:42;;;;;;;2.40;2.30;;;22.50;53.40;;;;;;4934890;29;20535;-63
2023/01/23 08:41:11;;;;;;;2.10;2.00;;;22.60;53.30;;;;;;4934219;29;20488;-62
2023/01/23 08:43:40;;;;;;;2.80;2.60;;;22.60;53.20;;;;;;4934245;29;20531;-64
2023/01/23 08:46:09;;;;;;;2.20;2.10;;;22.60;53.20;;;;;;4933538;29;20453;-64
2023/01/23 08:48:37;;;;;;;2.83;2.63;;;22.60;53.20;;;;;;4933465;29;20471;-64
2023/01/23 08:51:10;;;;;;;2.20;2.00;;;22.60;53.20;;;;;;4934054;29;20520;-63
2023/01/23 08:53:38;;;;;;;2.47;2.37;;;22.60;53.30;;;;;;4932952;29;20457;-63
2023/01/23 08:56:12;;;;;;;3.43;2.90;;;22.60;53.30;;;;;;4933930;29;20456;-63
2023/01/23 08:58:43;;;;;;;2.37;2.17;;;22.60;53.40;;;;;;4933582;29;20472;-63
2023/01/23 09:01:12;;;;;;;3.00;2.80;;;22.60;53.50;;;;;;4927745;29;20469;-63
2023/01/23 09:03:40;;;;;;;2.93;2.73;;;22.50;53.50;;;;;;4922456;29;20539;-63
2023/01/23 09:06:10;;;;;;;3.37;2.77;;;22.50;53.60;;;;;;4933656;29;20810;-66
2023/01/23 09:08:39;;;;;;;2.90;2.70;;;22.50;53.60;;;;;;4927308;29;20487;-64
2023/01/23 09:11:10;;;;;;;2.53;2.33;;;22.50;53.60;;;;;;4933337;29;20471;-61
2023/01/23 09:13:39;;;;;;;2.80;2.47;;;22.50;53.70;;;;;;4895433;29;1114983;-62
2023/01/23 09:16:08;;;;;;;3.83;3.03;;;22.50;53.40;;;;;;4934628;29;20487;-63
2023/01/23 09:18:36;;;;;;;2.23;2.13;;;22.40;53.20;;;;;;4933277;29;20522;-62
2023/01/23 09:21:10;;;;;;;2.77;2.50;;;22.40;53.10;;;;;;4934200;29;20511;-62
2023/01/23 09:23:38;;;;;;;2.80;2.60;;;22.40;53.10;;;;;;4933399;29;20967;-62
2023/01/23 09:26:09;;;;;;;3.20;2.93;;;22.40;53.00;;;;;;4934625;29;20452;-62
2023/01/23 09:28:41;;;;;;;2.77;2.57;;;22.30;52.90;;;;;;4932771;29;20833;-62
2023/01/23 09:31:11;;;;;;;2.53;2.40;;;22.30;52.90;;;;;;4931973;29;20627;-62
2023/01/23 09:33:39;;;;;;;2.83;2.73;;;22.40;52.90;;;;;;4930999;29;20518;-62
2023/01/23 09:36:08;;;;;;;2.70;2.50;;;22.40;52.80;;;;;;4932178;29;20877;-62
2023/01/23 09:38:37;;;;;;;2.37;2.20;;;22.40;52.80;;;;;;4932253;29;20444;-62
2023/01/23 09:41:16;;;;;;;3.17;2.97;;;22.40;52.70;;;;;;4923307;29;21023;-63
2023/01/23 09:43:51;;;;;;;3.20;2.90;;;22.40;52.70;;;;;;4926519;29;20458;-63
2023/01/23 09:46:24;;;;;;;3.03;2.83;;;22.40;52.70;;;;;;4932095;29;20498;-63
2023/01/23 09:48:59;;;;;;;3.00;2.80;;;22.40;52.60;;;;;;4922984;29;20564;-63
2023/01/23 09:51:33;;;;;;;3.10;2.80;;;22.40;52.60;;;;;;4932895;29;20474;-63
2023/01/23 09:54:13;;;;;;;3.20;3.00;;;22.50;52.50;;;;;;4932891;29;20548;-63
2023/01/23 09:56:46;;;;;;;3.03;2.83;;;22.50;52.50;;;;;;4918443;29;20489;-63
2023/01/23 09:59:21;;;;;;;3.43;3.13;;;22.50;52.40;;;;;;4917570;29;20448;-63
2023/01/23 10:01:49;;;;;;;3.60;3.40;;;22.50;52.40;;;;;;4931005;29;20505;-62
2023/01/23 10:04:19;;;;;;;3.47;3.17;;;22.50;52.40;;;;;;4931131;29;20488;-62
2023/01/23 10:07:14;;;;;;;3.13;2.83;;;22.50;52.40;;;;;;4929528;29;20966;-62
2023/01/23 10:10:04;;;;;;;3.00;2.80;;;22.50;52.30;;;;;;4918446;29;20476;-62
2023/01/23 10:12:47;;;;;;;2.70;2.50;;;22.50;52.30;;;;;;4928660;29;20471;-63
2023/01/23 10:15:23;;;;;;;2.93;2.73;;;22.50;52.30;;;;;;4925465;29;20498;-64
2023/01/23 10:18:03;;;;;;;3.33;3.03;;;22.50;52.30;;;;;;4924816;29;20456;-62
2023/01/23 10:20:55;;;;;;;3.27;3.07;;;22.50;52.30;;;;;;4924159;29;20551;-62
2023/01/23 10:23:50;;;;;;;3.33;3.13;;;22.40;52.40;;;;;;4927099;29;20576;-62
2023/01/23 10:26:22;;;;;;;2.87;2.53;;;22.40;52.40;;;;;;4922911;29;20450;-62
2023/01/23 10:28:56;;;;;;;3.60;3.30;;;22.40;52.40;;;;;;4927275;29;20544;-62
2023/01/23 10:31:33;;;;;;;3.23;3.03;;;22.40;52.40;;;;;;4924028;29;20658;-62
2023/01/23 10:34:11;;;;;;;2.77;2.53;;;22.40;52.40;;;;;;4925836;29;20569;-62
2023/01/23 10:36:47;;;;;;;3.50;3.30;;;22.40;52.40;;;;;;4927492;29;20484;-63
2023/01/23 10:39:27;;;;;;;3.50;3.20;;;22.40;52.40;;;;;;4927968;29;20614;-62
2023/01/23 10:41:55;;;;;;;3.33;3.10;;;22.40;52.40;;;;;;4929565;29;20853;-63
2023/01/23 10:44:31;;;;;;;3.60;3.37;;;22.40;52.40;;;;;;4931904;29;20456;-66
2023/01/23 10:47:04;;;;;;;3.60;3.30;;;22.40;52.30;;;;;;4929871;29;20889;-63
2023/01/23 10:49:35;;;;;;;3.20;2.97;;;22.40;52.30;;;;;;4932905;29;20459;-63
2023/01/23 10:52:04;;;;;;;3.17;2.97;;;22.50;52.30;;;;;;4925629;29;20527;-62
2023/01/23 10:54:45;;;;;;;2.80;2.60;;;22.50;52.20;;;;;;4927788;29;20445;-63
2023/01/23 10:57:23;;;;;;;3.30;3.10;;;22.50;52.20;;;;;;4925641;29;21255;-63
2023/01/23 10:59:56;;;;;;;3.33;3.13;;;22.50;52.20;;;;;;4934109;29;20542;-62
2023/01/23 11:02:28;;;;;;;3.20;2.90;;;22.50;52.10;;;;;;4925643;29;20904;-64
2023/01/23 11:05:00;;;;;;;3.90;3.60;;;22.50;52.10;;;;;;4932079;29;20905;-63
2023/01/23 11:07:30;;;;;;;4.07;3.77;;;22.50;52.10;;;;;;4931843;29;20516;-63
2023/01/23 11:10:00;;;;;;;3.53;3.13;;;22.40;52.10;;;;;;4933794;29;20448;-62
2023/01/23 11:12:30;;;;;;;3.40;3.10;;;22.40;52.00;;;;;;4920719;29;20453;-62
2023/01/23 11:15:20;;;;;;;3.50;3.30;;;22.40;52.00;;;;;;4918416;29;20484;-63
2023/01/23 11:17:50;;;;;;;2.80;2.60;;;22.40;52.00;;;;;;4918775;29;20796;-63
2023/01/23 11:20:27;;;;;;;3.30;3.00;;;22.40;52.00;;;;;;4918160;29;20434;-62
2023/01/23 11:23:05;;;;;;;3.47;3.17;;;22.40;52.00;;;;;;4918315;29;20487;-62
2023/01/23 11:25:37;;;;;;;3.90;3.60;;;22.30;51.90;;;;;;4918185;29;20440;-62
2023/01/23 11:28:22;;;;;;;3.20;3.00;;;22.30;51.90;;;;;;4921378;29;20933;-63
2023/01/23 11:30:56;;;;;;;3.30;2.80;;;22.30;51.90;;;;;;4936710;29;20459;-62
2023/01/23 11:33:46;;;;;;;3.43;3.20;;;22.30;51.80;;;;;;4937031;29;20735;-63
2023/01/23 11:36:36;;;;;;;3.77;3.40;;;22.20;51.80;;;;;;4937391;29;20436;-63
2023/01/23 11:39:15;;;;;;;3.20;3.00;;;22.20;51.70;;;;;;4934089;29;20526;-63
2023/01/23 11:41:45;;;;;;;3.30;3.00;;;22.20;51.60;;;;;;4935773;29;20578;-63
2023/01/23 11:44:16;;;;;;;3.50;3.20;;;22.20;51.60;;;;;;4936813;29;20830;-62
2023/01/23 11:47:12;;;;;;;3.70;3.40;;;22.10;51.50;;;;;;4936944;29;20531;-63
2023/01/23 11:49:57;;;;;;;5.47;4.97;;;22.10;51.40;;;;;;4926269;29;21011;-63
2023/01/23 11:52:38;;;;;;;6.10;5.00;;;22.10;51.40;;;;;;4936600;29;20470;-63
2023/01/23 11:55:30;;;;;;;3.60;3.30;;;22.10;51.40;;;;;;4934347;29;20554;-63
2023/01/23 11:58:08;;;;;;;4.00;3.63;;;22.10;51.30;;;;;;4932603;29;20966;-63
2023/01/23 12:00:40;;;;;;;4.37;3.97;;;22.10;51.20;;;;;;4932724;29;20488;-63
2023/01/23 12:03:38;;;;;;;5.50;5.00;;;22.10;51.10;;;;;;4932966;29;20944;-62
2023/01/23 12:06:21;;;;;;;4.70;4.27;;;22.10;51.00;;;;;;4923355;29;20479;-63
2023/01/23 12:08:55;;;;;;;5.40;4.23;;;22.10;50.90;;;;;;4931572;29;20550;-63
2023/01/23 12:11:27;;;;;;;5.00;4.40;;;22.10;50.80;;;;;;4929534;29;20456;-63
2023/01/23 12:14:07;;;;;;;5.20;4.80;;;22.10;50.70;;;;;;4931879;29;20527;-62
2023/01/23 12:16:57;;;;;;;4.60;4.20;;;22.10;50.60;;;;;;4928950;29;20582;-64
2023/01/23 12:19:39;;;;;;;5.57;5.17;;;22.20;50.60;;;;;;4930205;29;21011;-64
2023/01/23 12:22:14;;;;;;;6.83;5.30;;;22.10;50.60;;;;;;4925921;29;20476;-64
2023/01/23 12:25:00;;;;;;;9.27;4.87;;;22.10;50.60;;;;;;4929023;29;20483;-63
2023/01/23 12:27:40;;;;;;;8.93;5.33;;;22.10;50.70;;;;;;4929735;29;20457;-63
2023/01/23 12:30:24;;;;;;;5.20;4.70;;;22.10;50.80;;;;;;4929613;29;20937;-63
2023/01/23 12:33:02;;;;;;;5.07;4.67;;;22.20;50.80;;;;;;4923708;29;20472;-64
2023/01/23 12:35:39;;;;;;;6.00;5.40;;;22.20;50.80;;;;;;4926874;29;20446;-64
2023/01/23 12:38:15;;;;;;;5.87;5.27;;;22.20;50.80;;;;;;4934325;29;20870;-63
2023/01/23 12:40:47;;;;;;;5.17;4.70;;;22.20;50.70;;;;;;4932102;29;21014;-64
2023/01/23 12:43:19;;;;;;;5.10;4.47;;;22.20;50.70;;;;;;4931975;29;20518;-64
2023/01/23 12:45:52;;;;;;;5.73;5.23;;;22.20;50.60;;;;;;4927073;29;20602;-64
2023/01/23 12:48:28;;;;;;;5.53;5.13;;;22.20;50.60;;;;;;4925572;29;21015;-64
2023/01/23 12:51:05;;;;;;;5.50;5.00;;;22.10;50.60;;;;;;4920590;29;20463;-64
2023/01/23 12:53:38;;;;;;;5.90;5.30;;;22.10;50.60;;;;;;4923349;29;20491;-63
2023/01/23 12:56:11;;;;;;;5.07;4.67;;;22.10;50.60;;;;;;4920127;29;20476;-63
2023/01/23 12:58:45;;;;;;;6.03;5.40;;;22.10;50.70;;;;;;4928171;29;20463;-64
2023/01/23 13:01:25;;;;;;;6.47;5.47;;;22.10;50.70;;;;;;4924192;29;20498;-64
2023/01/23 13:04:04;;;;;;;8.10;4.80;;;22.10;51.00;;;;;;4924033;29;20484;-63
2023/01/23 13:06:47;;;;;;;5.27;4.60;;;22.10;51.20;;;;;;4924859;29;20877;-64
2023/01/23 13:09:24;;;;;;;7.17;5.93;;;22.20;51.40;;;;;;4922739;29;20448;-63
2023/01/23 13:12:01;;;;;;;6.33;4.97;;;22.20;51.50;;;;;;4919911;29;20961;-64
2023/01/23 13:14:45;;;;;;;5.87;5.27;;;22.30;51.70;;;;;;4918069;29;20503;-63
2023/01/23 13:17:38;;;;;;;5.53;4.80;;;22.30;51.70;;;;;;4917741;29;20552;-64
2023/01/23 13:23:31;;;;;;;7.50;5.07;;;22.50;51.80;;;;;;4915334;29;20854;-63
2023/01/23 13:26:27;;;;;;;9.77;4.50;;;22.50;51.80;;;;;;4924983;29;20932;-64